KRWI

Details ICAO KRWI (RWI)
Name ROCKY MOUNT WILSON RGNL
Region United States
Timezone America/New_York (UTC-5.0)
Plans Departing 2
Arriving 3
Stats Elevation 159 ft / 48 m (AMSL)
Location 35.856251° -77.891935°
Runways 1
Magnetic Variation 9.727° W
Sunrise 2017-12-15 12:16:01 UTC / 2017-12-15 07:16:01 Local
Sunset 2017-12-15 22:00:25 UTC / 2017-12-15 17:00:25 Local
Advertisement - Login to hide

Runways

ID Width Length Bearing (true) Bearing (mag) Surface Threshold Offset Overrun Length
04 150 ft / 46 m 7,109 ft / 2,167 m 33.19° 42.92° Asphalt 0 ft / 0 m 0 ft / 0 m
22 150 ft / 46 m 7,109 ft / 2,167 m 213.19° 222.92° Asphalt 0 ft / 0 m 0 ft / 0 m

Approach Navaids

Runway Type Ident Frequency Range Bearing (true) Bearing (mag) Slope Elevation
04 Localiser IRWI 108.30 MHz 18 nm / 33 km 33.19° 42.92° - 159 ft / 48 m (AMSL)
04 Glidescope IRWI 108.30 MHz 10 nm / 19 km 33.19° 42.92° 3.00° 151 ft / 46 m (AMSL)

Map

Weather


0- 5 10 15 20 25 30 35+ Temperature / ° C

Clouds and Precipitation
Forecast for 2017-12-16 06:00 UTC. Updated 32 minutes ago

Ground ~20,000 ft ~40,000 ft Winds

METAR

KRWI 160053Z AUTO 28003KT 10SM CLR 03/M02 A3004 RMK AO2 SLP175 T00331022

TAF

KRWI 152322Z 1600/1624 VRB03KT P6SM SCT200 FM161800 24006KT P6SM SKC

Frequencies

Recorded 118.87 MHz ASOS
Clearance 122.30 MHz CLNC DEL
Unicom 123.05 MHz CTAF/UNICOM
Warning: Do not use this data for real-world aviation or navigation. No guarantee of current accuracy is given.